Time,TemperatureC,DewpointC,PressurehPa,WindDirection,WindDirectionDegrees,WindSpeedKMH,WindSpeedGustKMH,Humidity,HourlyPrecipMM,Conditions,Clouds,dailyrainMM,SolarRadiationWatts/m^2,UVIndex,SoftwareType,DateUTC
2024-05-18 00:04:49,19.1,17.6,1013.8,East,79,3.6,4.8,91,0.0,,,0.0,,,n/a,2024-05-17T22:04:49Z
2024-05-18 00:09:56,19.1,17.6,1013.9,ENE,76,3.6,3.2,91,0.0,,,0.0,,,n/a,2024-05-17T22:09:56Z
2024-05-18 00:14:49,19.1,17.7,1013.9,ENE,78,3.7,4.8,91.7,0.0,,,0.0,,,n/a,2024-05-17T22:14:49Z
2024-05-18 00:19:55,19.1,17.7,1013.9,ENE,73,5.5,4.8,92,0.0,,,0.0,,,n/a,2024-05-17T22:19:55Z
2024-05-18 00:24:49,19.1,17.7,1013.8,ENE,78,4.2,4.8,92,0.0,,,0.0,,,n/a,2024-05-17T22:24:49Z
2024-05-18 00:29:58,19.1,17.7,1013.8,East,86,4.6,4.8,92,0.0,,,0.0,,,n/a,2024-05-17T22:29:58Z
2024-05-18 00:34:50,19,17.7,1013.8,ESE,114,3.7,4.8,92,0.0,,,0.0,,,n/a,2024-05-17T22:34:50Z
2024-05-18 00:39:51,18.9,17.6,1013.7,East,83,3.4,4.8,92,0.0,,,0.0,,,n/a,2024-05-17T22:39:51Z
2024-05-18 00:44:57,18.9,17.6,1013.6,East,86,4.9,4.8,92,0.0,,,0.0,,,n/a,2024-05-17T22:44:57Z
2024-05-18 00:49:53,18.8,17.5,1013.6,East,92,5.5,4.8,92,0.0,,,0.0,,,n/a,2024-05-17T22:49:53Z
2024-05-18 00:54:48,18.8,17.5,1013.6,East,81,4.3,4.8,92,0.0,,,0.0,,,n/a,2024-05-17T22:54:48Z
2024-05-18 00:59:56,18.8,17.4,1013.6,East,84,4.4,4.8,92,0.0,,,0.0,,,n/a,2024-05-17T22:59:56Z
2024-05-18 01:04:51,18.8,17.5,1013.6,ESE,110,3.3,4.8,92,0.0,,,0.0,,,n/a,2024-05-17T23:04:51Z
2024-05-18 01:09:52,18.8,17.5,1013.5,South,172,5.7,3.2,92,0.0,,,0.0,,,n/a,2024-05-17T23:09:52Z
2024-05-18 01:14:58,18.8,17.4,1013.5,East,86,3.5,9.7,91.7,0.0,,,0.0,,,n/a,2024-05-17T23:14:58Z
2024-05-18 01:19:53,18.8,17.3,1013.5,ENE,69,3.9,3.2,91,0.0,,,0.0,,,n/a,2024-05-17T23:19:53Z
2024-05-18 01:24:52,18.8,17.3,1013.5,ENE,62,4.6,6.4,91,0.0,,,0.0,,,n/a,2024-05-17T23:24:52Z
2024-05-18 01:29:58,18.8,17.3,1013.4,ENE,63,4.6,4.8,91,0.0,,,0.0,,,n/a,2024-05-17T23:29:58Z
2024-05-18 01:34:55,18.8,17.3,1013.4,ENE,61,4.6,6.4,91,0.0,,,0.0,,,n/a,2024-05-17T23:34:55Z
2024-05-18 01:39:54,18.7,17.2,1013.3,ENE,72,3.6,4.8,91,0.0,,,0.0,,,n/a,2024-05-17T23:39:54Z
2024-05-18 01:44:53,18.7,17.2,1013.3,ENE,68,3.6,3.2,91,0.0,,,0.0,,,n/a,2024-05-17T23:44:53Z
2024-05-18 01:49:58,18.7,17.2,1013.3,East,85,3.5,3.2,91.4,0.0,,,0.0,,,n/a,2024-05-17T23:49:58Z
2024-05-18 01:54:54,18.7,17.2,1013.2,ENE,75,3.7,3.2,91.3,0.0,,,0.0,,,n/a,2024-05-17T23:54:54Z
2024-05-18 01:59:59,18.7,17.2,1013.2,East,85,4.1,4.8,91,0.0,,,0.0,,,n/a,2024-05-17T23:59:59Z
2024-05-18 02:04:53,18.6,17.1,1013.2,ENE,70,5.2,4.8,91,0.0,,,0.0,,,n/a,2024-05-18T00:04:53Z
2024-05-18 02:09:52,18.6,17.1,1013.1,ENE,64,3.6,4.8,91,0.0,,,0.0,,,n/a,2024-05-18T00:09:52Z
2024-05-18 02:14:58,18.6,17.1,1013.1,ENE,76,4.1,3.2,91,0.0,,,0.0,,,n/a,2024-05-18T00:14:58Z
2024-05-18 02:19:55,18.6,17.1,1013.1,East,88,3.8,4.8,91,0.0,,,0.0,,,n/a,2024-05-18T00:19:55Z
2024-05-18 02:24:59,18.6,17.1,1013.1,ESE,104,3.9,3.2,91.4,0.0,,,0.0,,,n/a,2024-05-18T00:24:59Z
2024-05-18 02:29:54,18.6,17.1,1013.2,East,92,3.4,4.8,91,0.0,,,0.0,,,n/a,2024-05-18T00:29:54Z
2024-05-18 02:34:58,18.6,17.1,1013.2,East,80,3.6,3.2,91,0.0,,,0.0,,,n/a,2024-05-18T00:34:58Z
2024-05-18 02:39:58,18.6,17.1,1013.1,SE,126,3.7,3.2,91,0.0,,,0.0,,,n/a,2024-05-18T00:39:58Z
2024-05-18 02:44:53,18.6,17.1,1013.1,East,96,4.2,4.8,91,0.0,,,0.0,,,n/a,2024-05-18T00:44:53Z
2024-05-18 02:49:48,18.6,17.1,1013.0,East,83,3.4,4.8,91,0.0,,,0.0,,,n/a,2024-05-18T00:49:48Z
2024-05-18 02:54:56,18.6,17.1,1013.1,East,91,3.6,3.2,91,0.0,,,0.0,,,n/a,2024-05-18T00:54:56Z
2024-05-18 02:59:51,18.6,17.1,1013.1,East,93,3.4,3.2,91,0.0,,,0.0,,,n/a,2024-05-18T00:59:51Z
2024-05-18 03:04:56,18.6,17.1,1013.0,SE,129,3.9,3.2,90.4,0.0,,,0.0,,,n/a,2024-05-18T01:04:56Z
2024-05-18 03:09:55,18.7,17.1,1013.0,East,83,3.9,4.8,90.6,0.0,,,0.0,,,n/a,2024-05-18T01:09:55Z
2024-05-18 03:14:51,18.6,17,1013.0,East,91,3.4,4.8,90,0.0,,,0.0,,,n/a,2024-05-18T01:14:51Z
2024-05-18 03:19:57,18.6,17,1013.1,East,91,3.6,3.2,90,0.0,,,0.0,,,n/a,2024-05-18T01:19:57Z
2024-05-18 03:24:56,18.6,16.9,1013.1,East,87,4.5,3.2,90,0.0,,,0.0,,,n/a,2024-05-18T01:24:56Z
2024-05-18 03:29:58,18.6,16.9,1013.1,ENE,77,3.3,4.8,90,0.0,,,0.0,,,n/a,2024-05-18T01:29:58Z
2024-05-18 03:34:59,18.6,16.9,1013.1,NE,54,2.7,3.2,90,0.0,,,0.0,,,n/a,2024-05-18T01:34:59Z
2024-05-18 03:39:59,18.6,16.9,1013.1,East,99,4.2,3.2,90,0.0,,,0.0,,,n/a,2024-05-18T01:39:59Z
2024-05-18 03:44:55,18.6,16.9,1013.1,SE,132,3.6,4.8,90,0.0,,,0.0,,,n/a,2024-05-18T01:44:55Z
2024-05-18 03:49:50,18.6,16.9,1013.1,ESE,119,3.7,3.2,90,0.0,,,0.0,,,n/a,2024-05-18T01:49:50Z
2024-05-18 03:54:57,18.6,16.9,1013.2,ESE,117,3,4.8,90,0.0,,,0.0,,,n/a,2024-05-18T01:54:57Z
2024-05-18 03:59:56,18.6,16.9,1013.2,East,91,2.2,3.2,90,0.0,,,0.0,,,n/a,2024-05-18T01:59:56Z
2024-05-18 04:04:53,18.5,16.8,1013.2,ESE,104,4.1,3.2,90,0.0,,,0.0,,,n/a,2024-05-18T02:04:53Z
2024-05-18 04:09:53,18.5,16.8,1013.1,East,89,3.6,4.8,90,0.0,,,0.0,,,n/a,2024-05-18T02:09:53Z
2024-05-18 04:14:49,18.4,16.8,1013.1,ESE,110,4.1,3.2,90,0.0,,,0.0,,,n/a,2024-05-18T02:14:49Z
2024-05-18 04:19:52,18.5,16.8,1012.9,East,98,4.4,4.8,90,0.0,,,0.0,,,n/a,2024-05-18T02:19:52Z
2024-05-18 04:24:50,18.5,16.8,1012.9,East,83,3.8,4.8,90,0.0,,,0.0,,,n/a,2024-05-18T02:24:50Z
2024-05-18 04:29:49,18.4,16.8,1012.9,East,93,3.8,4.8,90,0.0,,,0.0,,,n/a,2024-05-18T02:29:49Z
2024-05-18 04:34:57,18.4,16.8,1012.9,ESE,106,3.3,4.8,90,0.0,,,0.0,,,n/a,2024-05-18T02:34:57Z
2024-05-18 04:39:50,18.4,16.8,1013.0,SE,124,3.7,4.8,90,0.0,,,0.0,,,n/a,2024-05-18T02:39:50Z
2024-05-18 04:44:56,18.4,16.8,1013.1,ESE,122,3.2,4.8,90,0.0,,,0.0,,,n/a,2024-05-18T02:44:56Z
2024-05-18 04:49:55,18.4,16.8,1013.2,SE,127,1.9,4.8,90,0.0,,,0.0,,,n/a,2024-05-18T02:49:55Z
2024-05-18 04:54:51,18.4,16.8,1013.2,ESE,120,2.3,2.1,90,0.0,,,0.0,,,n/a,2024-05-18T02:54:51Z
2024-05-18 04:59:58,18.4,16.7,1013.2,ESE,121,2.9,3.2,89.7,0.0,,,0.0,,,n/a,2024-05-18T02:59:58Z
2024-05-18 05:04:53,18.4,16.8,1013.2,ESE,119,2.3,3.2,90,0.0,,,0.0,,,n/a,2024-05-18T03:04:53Z
2024-05-18 05:09:52,18.4,16.7,1013.3,SSE,168,2.4,3.2,89.7,0.0,,,0.0,,,n/a,2024-05-18T03:09:52Z
2024-05-18 05:14:58,18.4,16.6,1013.3,SSW,206,2.2,3.2,89,0.0,,,0.0,,,n/a,2024-05-18T03:14:58Z
2024-05-18 05:19:54,18.3,16.5,1013.3,SW,216,2.7,3.2,89,0.0,,,0.0,,,n/a,2024-05-18T03:19:54Z
2024-05-18 05:24:49,18.3,16.5,1013.4,SW,221,2.3,3.2,89,0.0,,,0.0,,,n/a,2024-05-18T03:24:49Z
2024-05-18 05:29:55,18.3,16.5,1013.4,SW,221,1.4,3.2,89,0.0,,,0.0,,,n/a,2024-05-18T03:29:55Z
2024-05-18 05:34:59,18.4,16.5,1013.4,SW,218,2.5,3.2,89,0.0,,,0.0,,,n/a,2024-05-18T03:34:59Z
2024-05-18 05:39:39,18.4,16.6,1013.5,SSW,210,2,3.2,89.5,0.0,,,0.0,,,n/a,2024-05-18T03:39:39Z
2024-05-18 05:44:57,18.4,16.7,1013.5,SW,214,2,3.2,89.6,0.0,,,0.0,,,n/a,2024-05-18T03:44:57Z
2024-05-18 05:49:54,18.4,16.6,1013.4,SW,233,1.9,4.8,89,0.0,,,0.0,,,n/a,2024-05-18T03:49:54Z
2024-05-18 05:54:59,18.4,16.6,1013.4,WSW,255,1,1.6,89,0.0,,,0.0,,,n/a,2024-05-18T03:54:59Z
2024-05-18 05:59:58,18.5,16.7,1013.4,WSW,257,3.3,1.9,89,0.0,,,0.0,,,n/a,2024-05-18T03:59:58Z
2024-05-18 06:04:51,18.5,16.7,1013.5,WSW,257,1.8,3.2,89,0.0,,,0.0,,,n/a,2024-05-18T04:04:51Z
2024-05-18 06:09:50,18.6,16.8,1013.5,WSW,257,2.8,3.2,89,0.0,,,0.0,,,n/a,2024-05-18T04:09:50Z
2024-05-18 06:14:55,18.7,16.8,1013.6,South,171,3.4,4.7,89,0.0,,,0.0,,,n/a,2024-05-18T04:14:55Z
2024-05-18 06:19:54,18.7,16.9,1013.7,SSE,167,0.6,6.4,89,0.0,,,0.0,,,n/a,2024-05-18T04:19:54Z
2024-05-18 06:24:49,18.8,16.9,1013.7,SSE,167,1.1,1.6,89,0.0,,,0.0,,,n/a,2024-05-18T04:24:49Z
2024-05-18 06:29:50,18.8,17,1013.6,SE,134,4.4,2.7,89,0.0,,,0.0,,,n/a,2024-05-18T04:29:50Z
2024-05-18 06:34:56,18.8,17,1013.6,ESE,107,4.4,4.8,89,0.0,,,0.0,,,n/a,2024-05-18T04:34:56Z
2024-05-18 06:39:52,18.8,16.9,1013.6,ESE,120,3.9,4.8,89,0.0,,,0.0,,,n/a,2024-05-18T04:39:52Z
2024-05-18 06:44:48,18.8,16.9,1013.6,SE,135,3.6,4.8,89,0.0,,,0.0,,,n/a,2024-05-18T04:44:48Z
2024-05-18 06:49:48,18.8,16.8,1013.7,SE,133,1.6,3.2,88.5,0.0,,,0.0,,,n/a,2024-05-18T04:49:48Z
2024-05-18 06:54:56,18.8,16.9,1013.8,East,86,4.9,3.2,88.8,0.0,,,0.0,,,n/a,2024-05-18T04:54:56Z
2024-05-18 06:59:57,18.8,16.9,1013.8,East,88,3.9,4.8,88.8,0.0,,,0.0,,,n/a,2024-05-18T04:59:57Z
2024-05-18 07:04:50,18.9,16.8,1013.7,SE,133,4.2,4.8,88,0.0,,,0.0,,,n/a,2024-05-18T05:04:50Z
2024-05-18 07:09:52,18.9,16.8,1013.7,SE,133,1.1,4.8,88,0.0,,,0.0,,,n/a,2024-05-18T05:09:52Z
2024-05-18 07:14:59,18.9,16.8,1013.7,SW,225,2,1.6,88,0.0,,,0.0,,,n/a,2024-05-18T05:14:59Z
2024-05-18 07:19:51,18.9,16.8,1013.7,SE,135,3.1,3.2,87.7,0.0,,,0.0,,,n/a,2024-05-18T05:19:51Z
2024-05-18 07:24:56,18.9,16.7,1013.7,SE,136,0.8,3.2,87,0.0,,,0.0,,,n/a,2024-05-18T05:24:56Z
2024-05-18 07:29:56,19,16.8,1013.8,SE,134,0.9,1.6,87,0.0,,,0.0,,,n/a,2024-05-18T05:29:56Z
2024-05-18 07:34:59,19.1,16.9,1013.8,SE,135,2.9,1.6,87,0.0,,,0.0,,,n/a,2024-05-18T05:34:59Z
2024-05-18 07:39:58,19.2,17,1013.9,ESE,122,3.6,3.2,87,0.0,,,0.0,,,n/a,2024-05-18T05:39:58Z
2024-05-18 07:44:53,19.2,16.8,1013.8,East,100,4.6,4.8,86,0.0,,,0.0,,,n/a,2024-05-18T05:44:53Z
2024-05-18 07:49:48,19.2,16.8,1013.8,ESE,108,3.7,4.8,86,0.0,,,0.0,,,n/a,2024-05-18T05:49:48Z
2024-05-18 07:54:54,19.2,16.8,1013.8,ESE,120,4,4.8,86,0.0,,,0.0,,,n/a,2024-05-18T05:54:54Z
2024-05-18 07:59:51,19.2,16.8,1013.8,ESE,119,4,4.8,86,0.0,,,0.0,,,n/a,2024-05-18T05:59:51Z
2024-05-18 08:04:55,19.2,16.8,1013.9,East,91,4.9,6.4,86,0.0,,,0.0,,,n/a,2024-05-18T06:04:55Z
2024-05-18 08:09:56,19.3,16.8,1013.9,ESE,105,3.7,4.8,85.6,0.0,,,0.0,,,n/a,2024-05-18T06:09:56Z
2024-05-18 08:14:52,19.3,16.7,1013.9,East,101,4,4.8,85,0.0,,,0.0,,,n/a,2024-05-18T06:14:52Z
2024-05-18 08:19:50,19.4,16.7,1013.9,SE,126,4.9,3.2,84.8,0.0,,,0.0,,,n/a,2024-05-18T06:19:50Z
2024-05-18 08:24:57,19.4,16.6,1013.9,ESE,110,4.5,4.8,84,0.0,,,0.0,,,n/a,2024-05-18T06:24:57Z
2024-05-18 08:29:54,19.4,16.6,1013.9,ESE,109,3.4,4.8,84,0.0,,,0.0,,,n/a,2024-05-18T06:29:54Z
2024-05-18 08:34:49,19.4,16.7,1014.0,SE,130,3.6,4.8,84.4,0.0,,,0.0,,,n/a,2024-05-18T06:34:49Z
2024-05-18 08:39:53,19.5,16.8,1014.0,ESE,120,3.6,3.2,84.5,0.0,,,0.0,,,n/a,2024-05-18T06:39:53Z
2024-05-18 08:44:51,19.5,16.7,1014.0,ESE,112,4.2,3.2,84,0.0,,,0.0,,,n/a,2024-05-18T06:44:51Z
2024-05-18 08:49:53,19.5,16.7,1014.0,SE,133,3.9,4.8,84.2,0.0,,,0.0,,,n/a,2024-05-18T06:49:53Z
2024-05-18 08:54:49,19.5,16.8,1014.0,SE,128,3.4,3.2,84,0.0,,,0.0,,,n/a,2024-05-18T06:54:49Z
2024-05-18 08:59:51,19.6,16.8,1014.1,East,101,4.1,3.2,84,0.0,,,0.0,,,n/a,2024-05-18T06:59:51Z
2024-05-18 09:04:56,19.7,16.9,1014.1,ENE,70,4.6,4.8,84,0.0,,,0.0,,,n/a,2024-05-18T07:04:56Z
2024-05-18 09:09:51,19.6,16.9,1014.2,SE,130,4.2,4.8,84.2,0.0,,,0.0,,,n/a,2024-05-18T07:09:51Z
2024-05-18 09:14:49,19.6,16.9,1014.2,ESE,113,4,4.8,85,0.0,,,0.0,,,n/a,2024-05-18T07:14:49Z
2024-05-18 09:19:49,19.6,17,1014.2,ESE,105,4.1,4.8,85,0.0,,,0.0,,,n/a,2024-05-18T07:19:49Z
2024-05-18 09:24:58,19.7,17.1,1014.2,ESE,102,4.9,4.8,85,0.0,,,0.0,,,n/a,2024-05-18T07:24:58Z
2024-05-18 09:29:59,19.7,17.1,1014.1,ESE,119,5.1,4.8,85,0.0,,,0.0,,,n/a,2024-05-18T07:29:59Z
2024-05-18 09:34:55,19.8,17.2,1014.1,ESE,117,3.6,4.8,85,0.0,,,0.0,,,n/a,2024-05-18T07:34:55Z
2024-05-18 09:39:52,20,17.3,1014.2,ESE,118,5.2,4.2,84.3,0.0,,,0.0,,,n/a,2024-05-18T07:39:52Z
2024-05-18 09:44:50,20.1,17.3,1014.0,ESE,119,3.4,6.4,84,0.0,,,0.0,,,n/a,2024-05-18T07:44:50Z
2024-05-18 09:49:55,20.2,17.4,1014.0,East,95,5.4,4.8,83.8,0.0,,,0.0,,,n/a,2024-05-18T07:49:55Z
2024-05-18 09:54:53,20.3,17.3,1013.9,East,98,3.4,4.8,82.7,0.0,,,0.0,,,n/a,2024-05-18T07:54:53Z
2024-05-18 09:59:56,20.3,17.3,1014.0,ESE,110,4.3,4.8,82.7,0.0,,,0.0,,,n/a,2024-05-18T07:59:56Z
2024-05-18 10:04:53,20.5,17.3,1013.9,SE,133,5,4.8,82,0.0,,,0.0,,,n/a,2024-05-18T08:04:53Z
2024-05-18 10:09:51,20.6,17.4,1014.0,SE,129,5.3,4.8,82,0.0,,,0.0,,,n/a,2024-05-18T08:09:51Z
2024-05-18 10:14:57,20.6,17.5,1014.0,SE,134,4.3,6.4,82,0.0,,,0.0,,,n/a,2024-05-18T08:14:57Z
2024-05-18 10:19:53,20.8,17.4,1014.0,SE,133,4.9,4.8,81,0.0,,,0.0,,,n/a,2024-05-18T08:19:53Z
2024-05-18 10:24:49,20.8,17.4,1014.2,SE,133,5.4,4.8,81,0.0,,,0.0,,,n/a,2024-05-18T08:24:49Z
2024-05-18 10:29:49,20.7,17.3,1014.3,SE,136,5.5,6.4,81,0.0,,,0.0,,,n/a,2024-05-18T08:29:49Z
2024-05-18 10:34:55,20.7,17.3,1014.2,South,176,4.7,4.8,81,0.0,,,0.0,,,n/a,2024-05-18T08:34:55Z
2024-05-18 10:39:57,20.7,17.3,1014.2,SE,137,4.1,6.4,81,0.0,,,0.0,,,n/a,2024-05-18T08:39:57Z
2024-05-18 10:44:53,20.7,17.4,1014.1,SE,135,5.3,4.8,81.2,0.0,,,0.0,,,n/a,2024-05-18T08:44:53Z
2024-05-18 10:49:51,20.8,17.5,1014.1,SE,139,4.2,4.8,81.6,0.0,,,0.0,,,n/a,2024-05-18T08:49:51Z
2024-05-18 10:54:59,20.8,17.5,1014.3,SE,140,5.2,4.8,81.5,0.0,,,0.0,,,n/a,2024-05-18T08:54:59Z
2024-05-18 10:59:54,20.8,17.4,1014.4,SE,132,6.4,6.4,81,0.0,,,0.0,,,n/a,2024-05-18T08:59:54Z
2024-05-18 11:04:50,20.7,17.4,1014.4,SE,127,5.4,8,81.2,0.0,,,0.0,,,n/a,2024-05-18T09:04:50Z
2024-05-18 11:09:53,20.8,17.4,1014.3,ESE,102,4.7,6.4,81,0.0,,,0.0,,,n/a,2024-05-18T09:09:53Z
2024-05-18 11:14:38,20.9,17.5,1014.2,ESE,120,4.9,6.4,81,0.0,,,0.0,,,n/a,2024-05-18T09:14:38Z